sensor_id;sensor_type;location;lat;lon;timestamp;pressure;altitude;pressure_sealevel;temperature
37536;BMP180;23379;51.554;6.736;2022-07-29T00:01:33;101135.00;;;19.70
37536;BMP180;23379;51.554;6.736;2022-07-29T00:03:58;101134.00;;;19.60
37536;BMP180;23379;51.554;6.736;2022-07-29T00:06:24;101120.00;;;19.30
37536;BMP180;23379;51.554;6.736;2022-07-29T00:08:49;101122.00;;;19.60
37536;BMP180;23379;51.554;6.736;2022-07-29T00:11:14;101135.00;;;19.50
37536;BMP180;23379;51.554;6.736;2022-07-29T00:13:40;101126.00;;;19.40
37536;BMP180;23379;51.554;6.736;2022-07-29T00:16:05;101130.00;;;19.40
37536;BMP180;23379;51.554;6.736;2022-07-29T00:18:31;101123.00;;;19.50
37536;BMP180;23379;51.554;6.736;2022-07-29T00:20:57;101120.00;;;19.50
37536;BMP180;23379;51.554;6.736;2022-07-29T00:23:22;101123.00;;;19.40
37536;BMP180;23379;51.554;6.736;2022-07-29T00:25:47;101108.00;;;19.40
37536;BMP180;23379;51.554;6.736;2022-07-29T00:28:13;101118.00;;;19.50
37536;BMP180;23379;51.554;6.736;2022-07-29T00:30:38;101101.00;;;19.60
37536;BMP180;23379;51.554;6.736;2022-07-29T00:33:04;101094.00;;;19.50
37536;BMP180;23379;51.554;6.736;2022-07-29T00:35:29;101093.00;;;19.50
37536;BMP180;23379;51.554;6.736;2022-07-29T00:38:14;101082.00;;;19.30
37536;BMP180;23379;51.554;6.736;2022-07-29T00:40:40;101090.00;;;19.30
37536;BMP180;23379;51.554;6.736;2022-07-29T00:43:06;101078.00;;;19.20
37536;BMP180;23379;51.554;6.736;2022-07-29T00:45:31;101083.00;;;19.40
37536;BMP180;23379;51.554;6.736;2022-07-29T00:47:57;101056.00;;;19.20
37536;BMP180;23379;51.554;6.736;2022-07-29T00:50:22;101048.00;;;19.20
37536;BMP180;23379;51.554;6.736;2022-07-29T00:52:48;101078.00;;;19.20
37536;BMP180;23379;51.554;6.736;2022-07-29T00:55:15;101059.00;;;19.20
37536;BMP180;23379;51.554;6.736;2022-07-29T00:57:42;101047.00;;;19.20
37536;BMP180;23379;51.554;6.736;2022-07-29T01:00:11;101048.00;;;19.40
37536;BMP180;23379;51.554;6.736;2022-07-29T01:02:37;101044.00;;;19.20
37536;BMP180;23379;51.554;6.736;2022-07-29T01:05:03;101058.00;;;18.80
37536;BMP180;23379;51.554;6.736;2022-07-29T01:07:30;101050.00;;;18.80
37536;BMP180;23379;51.554;6.736;2022-07-29T01:09:58;101036.00;;;18.80
37536;BMP180;23379;51.554;6.736;2022-07-29T01:12:29;101041.00;;;18.90
37536;BMP180;23379;51.554;6.736;2022-07-29T01:14:58;101041.00;;;19.00
37536;BMP180;23379;51.554;6.736;2022-07-29T01:17:33;101047.00;;;18.80
37536;BMP180;23379;51.554;6.736;2022-07-29T01:20:10;101048.00;;;18.70
37536;BMP180;23379;51.554;6.736;2022-07-29T01:28:57;101042.00;;;18.90
37536;BMP180;23379;51.554;6.736;2022-07-29T01:31:31;101063.00;;;18.70
37536;BMP180;23379;51.554;6.736;2022-07-29T01:34:01;101040.00;;;18.80
37536;BMP180;23379;51.554;6.736;2022-07-29T01:36:32;101049.00;;;19.00
37536;BMP180;23379;51.554;6.736;2022-07-29T01:39:19;101048.00;;;18.90
37536;BMP180;23379;51.554;6.736;2022-07-29T01:44:54;101052.00;;;18.90
37536;BMP180;23379;51.554;6.736;2022-07-29T01:47:23;101036.00;;;18.90
37536;BMP180;23379;51.554;6.736;2022-07-29T01:49:52;101045.00;;;18.90
37536;BMP180;23379;51.554;6.736;2022-07-29T01:52:38;101029.00;;;18.90
37536;BMP180;23379;51.554;6.736;2022-07-29T01:55:11;101033.00;;;18.80
37536;BMP180;23379;51.554;6.736;2022-07-29T01:57:40;101043.00;;;18.80
37536;BMP180;23379;51.554;6.736;2022-07-29T02:00:08;101032.00;;;18.90
37536;BMP180;23379;51.554;6.736;2022-07-29T02:02:35;101029.00;;;19.00
37536;BMP180;23379;51.554;6.736;2022-07-29T02:05:03;101010.00;;;19.00
37536;BMP180;23379;51.554;6.736;2022-07-29T02:07:32;101022.00;;;18.90
37536;BMP180;23379;51.554;6.736;2022-07-29T02:09:58;101037.00;;;18.90
37536;BMP180;23379;51.554;6.736;2022-07-29T02:12:25;101049.00;;;18.80
37536;BMP180;23379;51.554;6.736;2022-07-29T02:14:53;101039.00;;;18.90
37536;BMP180;23379;51.554;6.736;2022-07-29T02:17:26;101029.00;;;19.00
37536;BMP180;23379;51.554;6.736;2022-07-29T02:19:55;101027.00;;;19.00
37536;BMP180;23379;51.554;6.736;2022-07-29T02:22:21;101030.00;;;18.90
37536;BMP180;23379;51.554;6.736;2022-07-29T02:24:50;101024.00;;;19.10
37536;BMP180;23379;51.554;6.736;2022-07-29T02:27:17;101038.00;;;19.20
37536;BMP180;23379;51.554;6.736;2022-07-29T02:29:45;101047.00;;;19.10
37536;BMP180;23379;51.554;6.736;2022-07-29T02:32:13;101051.00;;;19.10
37536;BMP180;23379;51.554;6.736;2022-07-29T02:34:41;101065.00;;;18.70
37536;BMP180;23379;51.554;6.736;2022-07-29T02:37:09;101087.00;;;18.40
37536;BMP180;23379;51.554;6.736;2022-07-29T02:39:36;101102.00;;;18.20
37536;BMP180;23379;51.554;6.736;2022-07-29T02:42:05;101103.00;;;18.10
37536;BMP180;23379;51.554;6.736;2022-07-29T02:44:32;101066.00;;;18.30
37536;BMP180;23379;51.554;6.736;2022-07-29T02:47:23;101066.00;;;18.50
37536;BMP180;23379;51.554;6.736;2022-07-29T02:49:56;101072.00;;;18.70
37536;BMP180;23379;51.554;6.736;2022-07-29T02:55:19;101113.00;;;18.30
37536;BMP180;23379;51.554;6.736;2022-07-29T02:57:51;101110.00;;;18.40
37536;BMP180;23379;51.554;6.736;2022-07-29T03:00:21;101090.00;;;18.40
37536;BMP180;23379;51.554;6.736;2022-07-29T03:02:50;101103.00;;;18.40
37536;BMP180;23379;51.554;6.736;2022-07-29T03:05:18;101108.00;;;18.40
37536;BMP180;23379;51.554;6.736;2022-07-29T03:07:53;101093.00;;;18.50
37536;BMP180;23379;51.554;6.736;2022-07-29T03:10:19;101080.00;;;18.30
37536;BMP180;23379;51.554;6.736;2022-07-29T03:12:46;101079.00;;;18.40
37536;BMP180;23379;51.554;6.736;2022-07-29T03:15:12;101056.00;;;18.30
37536;BMP180;23379;51.554;6.736;2022-07-29T03:17:39;101069.00;;;18.20
37536;BMP180;23379;51.554;6.736;2022-07-29T03:20:08;101086.00;;;18.30
37536;BMP180;23379;51.554;6.736;2022-07-29T03:22:41;101105.00;;;18.40
37536;BMP180;23379;51.554;6.736;2022-07-29T03:25:15;101084.00;;;18.10
37536;BMP180;23379;51.554;6.736;2022-07-29T03:27:42;101077.00;;;17.90
37536;BMP180;23379;51.554;6.736;2022-07-29T03:30:08;101073.00;;;18.10
37536;BMP180;23379;51.554;6.736;2022-07-29T03:32:35;101078.00;;;18.00
37536;BMP180;23379;51.554;6.736;2022-07-29T03:35:00;101066.00;;;17.90
37536;BMP180;23379;51.554;6.736;2022-07-29T03:37:26;101085.00;;;17.90
37536;BMP180;23379;51.554;6.736;2022-07-29T03:39:52;101089.00;;;17.80
37536;BMP180;23379;51.554;6.736;2022-07-29T03:42:21;101105.00;;;17.70
37536;BMP180;23379;51.554;6.736;2022-07-29T03:44:48;101101.00;;;17.90
37536;BMP180;23379;51.554;6.736;2022-07-29T03:47:17;101100.00;;;17.80
37536;BMP180;23379;51.554;6.736;2022-07-29T03:49:46;101085.00;;;17.80
37536;BMP180;23379;51.554;6.736;2022-07-29T03:52:13;101088.00;;;18.00
37536;BMP180;23379;51.554;6.736;2022-07-29T03:54:38;101099.00;;;17.70
37536;BMP180;23379;51.554;6.736;2022-07-29T03:57:05;101105.00;;;17.80
37536;BMP180;23379;51.554;6.736;2022-07-29T03:59:32;101085.00;;;18.00
37536;BMP180;23379;51.554;6.736;2022-07-29T04:02:00;101107.00;;;17.80
37536;BMP180;23379;51.554;6.736;2022-07-29T04:04:26;101109.00;;;18.00
37536;BMP180;23379;51.554;6.736;2022-07-29T04:06:51;101121.00;;;18.00
37536;BMP180;23379;51.554;6.736;2022-07-29T04:09:16;101131.00;;;18.00
37536;BMP180;23379;51.554;6.736;2022-07-29T04:11:42;101137.00;;;18.20
37536;BMP180;23379;51.554;6.736;2022-07-29T04:14:08;101130.00;;;18.00
37536;BMP180;23379;51.554;6.736;2022-07-29T04:16:34;101127.00;;;17.70
37536;BMP180;23379;51.554;6.736;2022-07-29T04:18:59;101141.00;;;17.70
37536;BMP180;23379;51.554;6.736;2022-07-29T04:21:25;101154.00;;;17.80
37536;BMP180;23379;51.554;6.736;2022-07-29T04:23:50;101164.00;;;17.80
37536;BMP180;23379;51.554;6.736;2022-07-29T04:26:17;101155.00;;;17.20
37536;BMP180;23379;51.554;6.736;2022-07-29T04:28:42;101144.00;;;16.60
37536;BMP180;23379;51.554;6.736;2022-07-29T04:31:09;101136.00;;;16.40
37536;BMP180;23379;51.554;6.736;2022-07-29T04:33:34;101118.00;;;16.10
37536;BMP180;23379;51.554;6.736;2022-07-29T04:36:00;101102.00;;;16.10
37536;BMP180;23379;51.554;6.736;2022-07-29T04:38:25;101091.00;;;16.40
37536;BMP180;23379;51.554;6.736;2022-07-29T04:40:51;101087.00;;;15.90
37536;BMP180;23379;51.554;6.736;2022-07-29T04:43:16;101093.00;;;15.60
37536;BMP180;23379;51.554;6.736;2022-07-29T04:45:42;101091.00;;;15.80
37536;BMP180;23379;51.554;6.736;2022-07-29T04:48:07;101082.00;;;16.00
37536;BMP180;23379;51.554;6.736;2022-07-29T04:50:33;101079.00;;;16.00
37536;BMP180;23379;51.554;6.736;2022-07-29T04:52:58;101086.00;;;16.20
37536;BMP180;23379;51.554;6.736;2022-07-29T04:55:24;101091.00;;;16.20
37536;BMP180;23379;51.554;6.736;2022-07-29T04:57:50;101095.00;;;16.20
37536;BMP180;23379;51.554;6.736;2022-07-29T05:00:16;101086.00;;;16.10
37536;BMP180;23379;51.554;6.736;2022-07-29T05:02:41;101066.00;;;15.50
37536;BMP180;23379;51.554;6.736;2022-07-29T05:05:07;101056.00;;;15.40
37536;BMP180;23379;51.554;6.736;2022-07-29T05:07:32;101061.00;;;15.40
37536;BMP180;23379;51.554;6.736;2022-07-29T05:09:59;101061.00;;;15.20
37536;BMP180;23379;51.554;6.736;2022-07-29T05:12:25;101067.00;;;15.50
37536;BMP180;23379;51.554;6.736;2022-07-29T05:14:50;101071.00;;;15.70
37536;BMP180;23379;51.554;6.736;2022-07-29T05:17:16;101081.00;;;15.70
37536;BMP180;23379;51.554;6.736;2022-07-29T05:19:41;101062.00;;;15.80
37536;BMP180;23379;51.554;6.736;2022-07-29T05:22:07;101066.00;;;16.00
37536;BMP180;23379;51.554;6.736;2022-07-29T05:24:32;101064.00;;;15.50
37536;BMP180;23379;51.554;6.736;2022-07-29T05:26:57;101065.00;;;15.40
37536;BMP180;23379;51.554;6.736;2022-07-29T05:29:23;101078.00;;;15.80
37536;BMP180;23379;51.554;6.736;2022-07-29T05:31:48;101080.00;;;16.10
37536;BMP180;23379;51.554;6.736;2022-07-29T05:34:14;101083.00;;;15.80
37536;BMP180;23379;51.554;6.736;2022-07-29T05:36:39;101080.00;;;15.80
37536;BMP180;23379;51.554;6.736;2022-07-29T05:39:04;101077.00;;;15.60
37536;BMP180;23379;51.554;6.736;2022-07-29T05:41:33;101078.00;;;15.70
37536;BMP180;23379;51.554;6.736;2022-07-29T05:43:58;101058.00;;;15.90
37536;BMP180;23379;51.554;6.736;2022-07-29T05:46:24;101071.00;;;15.70
37536;BMP180;23379;51.554;6.736;2022-07-29T05:48:49;101068.00;;;15.90
37536;BMP180;23379;51.554;6.736;2022-07-29T05:51:15;101056.00;;;15.70
37536;BMP180;23379;51.554;6.736;2022-07-29T05:53:40;101060.00;;;15.60
37536;BMP180;23379;51.554;6.736;2022-07-29T05:56:06;101058.00;;;15.50
37536;BMP180;23379;51.554;6.736;2022-07-29T05:58:32;101076.00;;;15.50
37536;BMP180;23379;51.554;6.736;2022-07-29T06:00:58;101078.00;;;15.60
37536;BMP180;23379;51.554;6.736;2022-07-29T06:03:27;101094.00;;;15.70
37536;BMP180;23379;51.554;6.736;2022-07-29T06:05:52;101081.00;;;15.40
37536;BMP180;23379;51.554;6.736;2022-07-29T06:08:18;101076.00;;;15.40
37536;BMP180;23379;51.554;6.736;2022-07-29T06:10:43;101081.00;;;15.60
37536;BMP180;23379;51.554;6.736;2022-07-29T06:13:09;101073.00;;;15.80
37536;BMP180;23379;51.554;6.736;2022-07-29T06:15:34;101083.00;;;16.20
37536;BMP180;23379;51.554;6.736;2022-07-29T06:18:00;101073.00;;;16.00
37536;BMP180;23379;51.554;6.736;2022-07-29T06:20:25;101070.00;;;16.20
37536;BMP180;23379;51.554;6.736;2022-07-29T06:22:52;101078.00;;;16.00
37536;BMP180;23379;51.554;6.736;2022-07-29T06:25:17;101062.00;;;15.60
37536;BMP180;23379;51.554;6.736;2022-07-29T06:27:43;101058.00;;;15.40
37536;BMP180;23379;51.554;6.736;2022-07-29T06:30:09;101056.00;;;15.80
37536;BMP180;23379;51.554;6.736;2022-07-29T06:32:35;101060.00;;;16.00
37536;BMP180;23379;51.554;6.736;2022-07-29T06:35:01;101049.00;;;16.30
37536;BMP180;23379;51.554;6.736;2022-07-29T06:37:26;101041.00;;;16.50
37536;BMP180;23379;51.554;6.736;2022-07-29T06:39:51;101054.00;;;17.00
37536;BMP180;23379;51.554;6.736;2022-07-29T06:42:35;101042.00;;;16.90
37536;BMP180;23379;51.554;6.736;2022-07-29T06:45:01;101054.00;;;16.70
37536;BMP180;23379;51.554;6.736;2022-07-29T06:47:26;101055.00;;;16.60
37536;BMP180;23379;51.554;6.736;2022-07-29T06:49:51;101045.00;;;16.40
37536;BMP180;23379;51.554;6.736;2022-07-29T06:52:17;101048.00;;;17.00
37536;BMP180;23379;51.554;6.736;2022-07-29T06:54:43;101051.00;;;17.10
37536;BMP180;23379;51.554;6.736;2022-07-29T06:57:13;101071.00;;;17.10
37536;BMP180;23379;51.554;6.736;2022-07-29T06:59:38;101073.00;;;17.60
37536;BMP180;23379;51.554;6.736;2022-07-29T07:02:04;101069.00;;;17.30
37536;BMP180;23379;51.554;6.736;2022-07-29T07:04:29;101089.00;;;17.40
37536;BMP180;23379;51.554;6.736;2022-07-29T07:06:55;101102.00;;;17.40
37536;BMP180;23379;51.554;6.736;2022-07-29T07:09:21;101119.00;;;17.30
37536;BMP180;23379;51.554;6.736;2022-07-29T07:11:46;101132.00;;;16.90
37536;BMP180;23379;51.554;6.736;2022-07-29T07:14:12;101148.00;;;16.60
37536;BMP180;23379;51.554;6.736;2022-07-29T07:16:37;101164.00;;;15.90
37536;BMP180;23379;51.554;6.736;2022-07-29T07:19:02;101153.00;;;15.90
37536;BMP180;23379;51.554;6.736;2022-07-29T07:21:28;101172.00;;;15.80
37536;BMP180;23379;51.554;6.736;2022-07-29T07:23:54;101162.00;;;16.30
37536;BMP180;23379;51.554;6.736;2022-07-29T07:26:19;101168.00;;;16.30
37536;BMP180;23379;51.554;6.736;2022-07-29T07:28:45;101175.00;;;16.50
37536;BMP180;23379;51.554;6.736;2022-07-29T07:31:11;101176.00;;;16.80
37536;BMP180;23379;51.554;6.736;2022-07-29T07:33:37;101165.00;;;16.80
37536;BMP180;23379;51.554;6.736;2022-07-29T07:36:02;101166.00;;;16.50
37536;BMP180;23379;51.554;6.736;2022-07-29T07:38:28;101156.00;;;16.30
37536;BMP180;23379;51.554;6.736;2022-07-29T07:40:54;101145.00;;;15.90
37536;BMP180;23379;51.554;6.736;2022-07-29T07:43:19;101156.00;;;16.20
37536;BMP180;23379;51.554;6.736;2022-07-29T07:45:45;101170.00;;;16.70
37536;BMP180;23379;51.554;6.736;2022-07-29T07:48:10;101166.00;;;16.90
37536;BMP180;23379;51.554;6.736;2022-07-29T07:50:36;101152.00;;;17.00
37536;BMP180;23379;51.554;6.736;2022-07-29T07:53:02;101145.00;;;16.50
37536;BMP180;23379;51.554;6.736;2022-07-29T07:55:27;101152.00;;;16.40
37536;BMP180;23379;51.554;6.736;2022-07-29T07:57:56;101150.00;;;16.60
37536;BMP180;23379;51.554;6.736;2022-07-29T08:00:22;101152.00;;;16.90
37536;BMP180;23379;51.554;6.736;2022-07-29T08:02:47;101167.00;;;17.10
37536;BMP180;23379;51.554;6.736;2022-07-29T08:05:13;101170.00;;;17.00
37536;BMP180;23379;51.554;6.736;2022-07-29T08:07:43;101153.00;;;17.40
37536;BMP180;23379;51.554;6.736;2022-07-29T08:10:09;101157.00;;;17.60
37536;BMP180;23379;51.554;6.736;2022-07-29T08:12:34;101171.00;;;17.20
37536;BMP180;23379;51.554;6.736;2022-07-29T08:15:00;101164.00;;;17.20
37536;BMP180;23379;51.554;6.736;2022-07-29T08:17:29;101153.00;;;17.50
37536;BMP180;23379;51.554;6.736;2022-07-29T08:19:54;101162.00;;;17.60
37536;BMP180;23379;51.554;6.736;2022-07-29T08:22:20;101161.00;;;17.80
37536;BMP180;23379;51.554;6.736;2022-07-29T08:24:46;101166.00;;;18.10
37536;BMP180;23379;51.554;6.736;2022-07-29T08:27:18;101167.00;;;18.00
37536;BMP180;23379;51.554;6.736;2022-07-29T08:29:43;101179.00;;;17.50
37536;BMP180;23379;51.554;6.736;2022-07-29T08:32:08;101181.00;;;17.80
37536;BMP180;23379;51.554;6.736;2022-07-29T08:34:34;101181.00;;;17.50
37536;BMP180;23379;51.554;6.736;2022-07-29T08:37:00;101182.00;;;17.40
37536;BMP180;23379;51.554;6.736;2022-07-29T08:39:25;101162.00;;;16.90
37536;BMP180;23379;51.554;6.736;2022-07-29T08:41:51;101154.00;;;16.70
37536;BMP180;23379;51.554;6.736;2022-07-29T08:44:18;101143.00;;;16.60
37536;BMP180;23379;51.554;6.736;2022-07-29T08:46:44;101155.00;;;16.90
37536;BMP180;23379;51.554;6.736;2022-07-29T08:49:10;101164.00;;;17.40
37536;BMP180;23379;51.554;6.736;2022-07-29T08:51:39;101152.00;;;17.70
37536;BMP180;23379;51.554;6.736;2022-07-29T08:54:05;101160.00;;;17.40
37536;BMP180;23379;51.554;6.736;2022-07-29T08:56:31;101139.00;;;17.10
37536;BMP180;23379;51.554;6.736;2022-07-29T08:59:04;101148.00;;;17.40
37536;BMP180;23379;51.554;6.736;2022-07-29T09:01:32;101154.00;;;17.10
37536;BMP180;23379;51.554;6.736;2022-07-29T09:03:58;101150.00;;;17.50
37536;BMP180;23379;51.554;6.736;2022-07-29T09:06:30;101152.00;;;17.70
37536;BMP180;23379;51.554;6.736;2022-07-29T09:08:59;101143.00;;;18.30
37536;BMP180;23379;51.554;6.736;2022-07-29T09:11:24;101148.00;;;17.90
37536;BMP180;23379;51.554;6.736;2022-07-29T09:13:50;101145.00;;;17.80
37536;BMP180;23379;51.554;6.736;2022-07-29T09:16:15;101146.00;;;18.00
37536;BMP180;23379;51.554;6.736;2022-07-29T09:18:43;101140.00;;;18.00
37536;BMP180;23379;51.554;6.736;2022-07-29T09:21:14;101133.00;;;18.70
37536;BMP180;23379;51.554;6.736;2022-07-29T09:26:33;101147.00;;;19.70
37536;BMP180;23379;51.554;6.736;2022-07-29T09:28:59;101154.00;;;20.20
37536;BMP180;23379;51.554;6.736;2022-07-29T09:31:35;101152.00;;;20.60
37536;BMP180;23379;51.554;6.736;2022-07-29T09:34:02;101146.00;;;21.20
37536;BMP180;23379;51.554;6.736;2022-07-29T09:36:28;101150.00;;;21.10
37536;BMP180;23379;51.554;6.736;2022-07-29T09:39:01;101148.00;;;20.50
37536;BMP180;23379;51.554;6.736;2022-07-29T09:41:27;101152.00;;;20.80
37536;BMP180;23379;51.554;6.736;2022-07-29T09:43:58;101149.00;;;20.30
37536;BMP180;23379;51.554;6.736;2022-07-29T09:46:24;101153.00;;;20.70
37536;BMP180;23379;51.554;6.736;2022-07-29T09:49:10;101156.00;;;20.50
37536;BMP180;23379;51.554;6.736;2022-07-29T09:51:36;101140.00;;;20.60
37536;BMP180;23379;51.554;6.736;2022-07-29T09:54:21;101130.00;;;20.20
37536;BMP180;23379;51.554;6.736;2022-07-29T09:56:48;101128.00;;;20.10
37536;BMP180;23379;51.554;6.736;2022-07-29T09:59:13;101124.00;;;19.80
37536;BMP180;23379;51.554;6.736;2022-07-29T10:01:39;101131.00;;;20.10
37536;BMP180;23379;51.554;6.736;2022-07-29T10:04:05;101134.00;;;20.60
37536;BMP180;23379;51.554;6.736;2022-07-29T10:06:30;101130.00;;;20.70
37536;BMP180;23379;51.554;6.736;2022-07-29T10:09:10;101135.00;;;21.50
37536;BMP180;23379;51.554;6.736;2022-07-29T10:11:36;101130.00;;;21.50
37536;BMP180;23379;51.554;6.736;2022-07-29T10:14:03;101138.00;;;21.60
37536;BMP180;23379;51.554;6.736;2022-07-29T10:16:29;101135.00;;;21.10
37536;BMP180;23379;51.554;6.736;2022-07-29T10:18:58;101141.00;;;20.80
37536;BMP180;23379;51.554;6.736;2022-07-29T10:21:25;101133.00;;;20.70
37536;BMP180;23379;51.554;6.736;2022-07-29T10:23:52;101123.00;;;20.80
37536;BMP180;23379;51.554;6.736;2022-07-29T10:26:19;101116.00;;;20.70
37536;BMP180;23379;51.554;6.736;2022-07-29T10:28:45;101109.00;;;20.40
37536;BMP180;23379;51.554;6.736;2022-07-29T10:31:28;101112.00;;;20.70
37536;BMP180;23379;51.554;6.736;2022-07-29T10:42:27;101142.00;;;21.80
37536;BMP180;23379;51.554;6.736;2022-07-29T10:44:54;101139.00;;;21.80
37536;BMP180;23379;51.554;6.736;2022-07-29T10:47:24;101140.00;;;21.70
37536;BMP180;23379;51.554;6.736;2022-07-29T10:50:00;101142.00;;;21.50
37536;BMP180;23379;51.554;6.736;2022-07-29T10:55:37;101144.00;;;21.90
37536;BMP180;23379;51.554;6.736;2022-07-29T10:58:25;101141.00;;;22.00
37536;BMP180;23379;51.554;6.736;2022-07-29T11:00:52;101161.00;;;22.80
37536;BMP180;23379;51.554;6.736;2022-07-29T11:06:06;101160.00;;;24.60
37536;BMP180;23379;51.554;6.736;2022-07-29T11:08:31;101152.00;;;25.80
37536;BMP180;23379;51.554;6.736;2022-07-29T11:13:51;101171.00;;;26.00
37536;BMP180;23379;51.554;6.736;2022-07-29T11:16:18;101167.00;;;27.10
37536;BMP180;23379;51.554;6.736;2022-07-29T11:21:39;101169.00;;;28.20
37536;BMP180;23379;51.554;6.736;2022-07-29T11:26:38;101168.00;;;29.50
37536;BMP180;23379;51.554;6.736;2022-07-29T11:29:17;101168.00;;;30.70
37536;BMP180;23379;51.554;6.736;2022-07-29T11:31:46;101164.00;;;29.80
37536;BMP180;23379;51.554;6.736;2022-07-29T11:34:17;101173.00;;;29.80
37536;BMP180;23379;51.554;6.736;2022-07-29T11:37:13;101181.00;;;30.40
37536;BMP180;23379;51.554;6.736;2022-07-29T11:45:10;101183.00;;;28.40
37536;BMP180;23379;51.554;6.736;2022-07-29T11:47:41;101183.00;;;28.80
37536;BMP180;23379;51.554;6.736;2022-07-29T11:50:14;101189.00;;;27.70
37536;BMP180;23379;51.554;6.736;2022-07-29T11:52:42;101179.00;;;27.30
37536;BMP180;23379;51.554;6.736;2022-07-29T11:55:21;101180.00;;;26.70
37536;BMP180;23379;51.554;6.736;2022-07-29T12:02:56;101187.00;;;25.90
37536;BMP180;23379;51.554;6.736;2022-07-29T12:10:57;101167.00;;;24.00
37536;BMP180;23379;51.554;6.736;2022-07-29T12:13:22;101176.00;;;24.50
37536;BMP180;23379;51.554;6.736;2022-07-29T12:15:54;101184.00;;;24.60
37536;BMP180;23379;51.554;6.736;2022-07-29T12:18:20;101173.00;;;23.80
37536;BMP180;23379;51.554;6.736;2022-07-29T12:20:47;101182.00;;;24.00
37536;BMP180;23379;51.554;6.736;2022-07-29T12:23:13;101169.00;;;24.00
37536;BMP180;23379;51.554;6.736;2022-07-29T12:25:41;101184.00;;;23.70
37536;BMP180;23379;51.554;6.736;2022-07-29T12:28:09;101170.00;;;23.50
37536;BMP180;23379;51.554;6.736;2022-07-29T12:30:43;101177.00;;;23.60
37536;BMP180;23379;51.554;6.736;2022-07-29T12:33:15;101175.00;;;23.70
37536;BMP180;23379;51.554;6.736;2022-07-29T12:35:41;101181.00;;;23.60
37536;BMP180;23379;51.554;6.736;2022-07-29T12:38:09;101183.00;;;23.60
37536;BMP180;23379;51.554;6.736;2022-07-29T12:40:35;101183.00;;;23.40
37536;BMP180;23379;51.554;6.736;2022-07-29T12:43:17;101180.00;;;23.30
37536;BMP180;23379;51.554;6.736;2022-07-29T12:45:48;101190.00;;;23.30
37536;BMP180;23379;51.554;6.736;2022-07-29T12:48:15;101182.00;;;23.40
37536;BMP180;23379;51.554;6.736;2022-07-29T12:50:59;101183.00;;;23.60
37536;BMP180;23379;51.554;6.736;2022-07-29T12:53:25;101178.00;;;23.90
37536;BMP180;23379;51.554;6.736;2022-07-29T12:55:52;101173.00;;;23.80
37536;BMP180;23379;51.554;6.736;2022-07-29T13:01:06;101181.00;;;24.20
37536;BMP180;23379;51.554;6.736;2022-07-29T13:03:51;101177.00;;;23.40
37536;BMP180;23379;51.554;6.736;2022-07-29T13:11:42;101179.00;;;23.60
37536;BMP180;23379;51.554;6.736;2022-07-29T13:14:10;101178.00;;;24.00
37536;BMP180;23379;51.554;6.736;2022-07-29T13:16:38;101183.00;;;24.10
37536;BMP180;23379;51.554;6.736;2022-07-29T13:19:36;101173.00;;;24.10
37536;BMP180;23379;51.554;6.736;2022-07-29T13:22:01;101178.00;;;24.00
37536;BMP180;23379;51.554;6.736;2022-07-29T13:24:27;101186.00;;;23.90
37536;BMP180;23379;51.554;6.736;2022-07-29T13:26:52;101189.00;;;24.40
37536;BMP180;23379;51.554;6.736;2022-07-29T13:29:18;101184.00;;;24.30
37536;BMP180;23379;51.554;6.736;2022-07-29T13:31:43;101168.00;;;24.10
37536;BMP180;23379;51.554;6.736;2022-07-29T13:34:09;101166.00;;;24.00
37536;BMP180;23379;51.554;6.736;2022-07-29T13:36:34;101169.00;;;23.90
37536;BMP180;23379;51.554;6.736;2022-07-29T13:39:00;101168.00;;;24.20
37536;BMP180;23379;51.554;6.736;2022-07-29T13:41:28;101180.00;;;24.50
37536;BMP180;23379;51.554;6.736;2022-07-29T13:43:54;101186.00;;;24.90
37536;BMP180;23379;51.554;6.736;2022-07-29T13:46:21;101183.00;;;24.70
37536;BMP180;23379;51.554;6.736;2022-07-29T13:48:46;101173.00;;;24.50
37536;BMP180;23379;51.554;6.736;2022-07-29T13:51:12;101174.00;;;24.50
37536;BMP180;23379;51.554;6.736;2022-07-29T13:53:37;101163.00;;;24.50
37536;BMP180;23379;51.554;6.736;2022-07-29T13:56:03;101171.00;;;24.50
37536;BMP180;23379;51.554;6.736;2022-07-29T13:58:31;101170.00;;;24.70
37536;BMP180;23379;51.554;6.736;2022-07-29T14:00:57;101180.00;;;24.60
37536;BMP180;23379;51.554;6.736;2022-07-29T14:03:22;101175.00;;;24.80
37536;BMP180;23379;51.554;6.736;2022-07-29T14:05:48;101164.00;;;24.90
37536;BMP180;23379;51.554;6.736;2022-07-29T14:08:16;101173.00;;;25.00
37536;BMP180;23379;51.554;6.736;2022-07-29T14:10:42;101159.00;;;25.20
37536;BMP180;23379;51.554;6.736;2022-07-29T14:13:07;101164.00;;;26.00
37536;BMP180;23379;51.554;6.736;2022-07-29T14:15:33;101162.00;;;26.00
37536;BMP180;23379;51.554;6.736;2022-07-29T14:17:58;101169.00;;;25.90
37536;BMP180;23379;51.554;6.736;2022-07-29T14:20:24;101163.00;;;25.90
37536;BMP180;23379;51.554;6.736;2022-07-29T14:22:49;101169.00;;;25.70
37536;BMP180;23379;51.554;6.736;2022-07-29T14:25:14;101164.00;;;25.70
37536;BMP180;23379;51.554;6.736;2022-07-29T14:27:40;101151.00;;;25.20
37536;BMP180;23379;51.554;6.736;2022-07-29T14:30:06;101157.00;;;25.40
37536;BMP180;23379;51.554;6.736;2022-07-29T14:32:31;101158.00;;;25.60
37536;BMP180;23379;51.554;6.736;2022-07-29T14:34:59;101160.00;;;25.70
37536;BMP180;23379;51.554;6.736;2022-07-29T14:37:25;101165.00;;;25.90
37536;BMP180;23379;51.554;6.736;2022-07-29T14:39:50;101158.00;;;25.80
37536;BMP180;23379;51.554;6.736;2022-07-29T14:42:15;101158.00;;;25.50
37536;BMP180;23379;51.554;6.736;2022-07-29T14:44:41;101154.00;;;25.20
37536;BMP180;23379;51.554;6.736;2022-07-29T14:47:06;101147.00;;;25.30
37536;BMP180;23379;51.554;6.736;2022-07-29T14:49:31;101162.00;;;25.10
37536;BMP180;23379;51.554;6.736;2022-07-29T14:51:57;101151.00;;;25.50
37536;BMP180;23379;51.554;6.736;2022-07-29T14:54:22;101154.00;;;25.70
37536;BMP180;23379;51.554;6.736;2022-07-29T14:56:48;101149.00;;;25.20
37536;BMP180;23379;51.554;6.736;2022-07-29T14:59:16;101162.00;;;25.40
37536;BMP180;23379;51.554;6.736;2022-07-29T15:01:41;101150.00;;;25.20